Time,TemperatureF,DewpointF,PressureIn,WindDirection,WindDirectionDegrees,WindSpeedMPH,WindSpeedGustMPH,Humidity,HourlyPrecipIn,Conditions,Clouds,dailyrainin,SolarRadiationWatts/m^2,SoftwareType,DateUTC
2013-08-03 00:01:00,52.0,49.0,-100.00,SSW,211,2.0,3.0,88,0.00,,,0.01,0.000000,,2013-08-03 06:01:00,
2013-08-03 00:32:00,52.0,49.0,-100.00,SSW,211,2.0,3.0,88,0.00,,,0.01,0.000000,,2013-08-03 06:32:00,
2013-08-03 00:42:00,52.0,49.0,-100.00,SSW,211,2.0,3.0,88,0.00,,,0.01,0.000000,,2013-08-03 06:42:00,
2013-08-03 00:52:00,52.0,49.0,-100.00,SSW,211,2.0,3.0,88,0.00,,,0.01,0.000000,,2013-08-03 06:52:00,
2013-08-03 01:01:00,50.0,47.0,-100.00,SW,214,2.0,3.0,90,0.00,,,0.01,0.000000,,2013-08-03 07:01:00,
2013-08-03 01:32:00,50.0,47.0,-100.00,SW,214,2.0,3.0,90,0.00,,,0.01,0.000000,,2013-08-03 07:32:00,
2013-08-03 01:43:00,50.0,47.0,-100.00,SW,214,2.0,3.0,90,0.00,,,0.01,0.000000,,2013-08-03 07:43:00,
2013-08-03 01:53:00,50.0,47.0,-100.00,SW,214,2.0,3.0,90,0.00,,,0.01,0.000000,,2013-08-03 07:53:00,
2013-08-03 02:01:00,50.0,47.0,-100.00,West,273,2.0,4.0,90,0.00,,,0.01,0.000000,,2013-08-03 08:01:00,
2013-08-03 02:32:00,50.0,47.0,-100.00,West,273,2.0,4.0,90,0.00,,,0.01,0.000000,,2013-08-03 08:32:00,
2013-08-03 02:43:00,50.0,47.0,-100.00,West,273,2.0,4.0,90,0.00,,,0.01,0.000000,,2013-08-03 08:43:00,
2013-08-03 02:52:00,50.0,47.0,-100.00,West,273,2.0,4.0,90,0.00,,,0.01,0.000000,,2013-08-03 08:52:00,
2013-08-03 03:01:00,48.0,46.0,-100.00,WSW,258,1.0,3.0,94,0.00,,,0.00,0.000000,,2013-08-03 09:01:00,
2013-08-03 03:32:00,48.0,46.0,-100.00,WSW,258,1.0,3.0,94,0.00,,,0.00,0.000000,,2013-08-03 09:32:00,
2013-08-03 03:43:00,48.0,46.0,-100.00,WSW,258,1.0,3.0,94,0.00,,,0.00,0.000000,,2013-08-03 09:43:00,
2013-08-03 03:53:00,48.0,46.0,-100.00,WSW,258,1.0,3.0,94,0.00,,,0.00,0.000000,,2013-08-03 09:53:00,
2013-08-03 04:01:00,46.0,45.0,-100.00,SSW,210,2.0,3.0,95,0.00,,,0.00,0.000000,,2013-08-03 10:01:00,
2013-08-03 04:32:00,46.0,45.0,-100.00,SSW,210,2.0,3.0,95,0.00,,,0.00,0.000000,,2013-08-03 10:32:00,
2013-08-03 04:43:00,46.0,45.0,-100.00,SSW,210,2.0,3.0,95,0.00,,,0.00,0.000000,,2013-08-03 10:43:00,
2013-08-03 04:53:00,46.0,45.0,-100.00,SSW,210,2.0,3.0,95,0.00,,,0.00,0.000000,,2013-08-03 10:53:00,
2013-08-03 05:01:00,45.0,44.0,-100.00,SSW,213,2.0,2.0,98,0.00,,,0.00,0.000000,,2013-08-03 11:01:00,
2013-08-03 05:32:00,45.0,44.0,-100.00,SSW,213,2.0,2.0,98,0.00,,,0.00,0.000000,,2013-08-03 11:32:00,
2013-08-03 05:43:00,45.0,44.0,-100.00,SSW,213,2.0,2.0,98,0.00,,,0.00,0.000000,,2013-08-03 11:43:00,
2013-08-03 05:53:00,45.0,44.0,-100.00,SSW,213,2.0,2.0,98,0.00,,,0.00,0.000000,,2013-08-03 11:53:00,
2013-08-03 06:01:00,45.0,44.0,-100.00,SW,236,1.0,2.0,98,0.00,,,-99.99,0.000000,,2013-08-03 12:01:00,
2013-08-03 06:33:00,45.0,44.0,-100.00,SW,236,1.0,2.0,98,0.00,,,-99.99,0.000000,,2013-08-03 12:33:00,
2013-08-03 06:43:00,45.0,44.0,-100.00,SW,236,1.0,2.0,98,0.00,,,-99.99,0.000000,,2013-08-03 12:43:00,
2013-08-03 06:52:00,45.0,44.0,-100.00,SW,236,1.0,2.0,98,0.00,,,-99.99,0.000000,,2013-08-03 12:52:00,
2013-08-03 07:01:00,45.0,45.0,-100.00,SSW,209,1.0,2.0,99,0.00,,,0.00,13.000000,,2013-08-03 13:01:00,
2013-08-03 07:43:00,45.0,45.0,-100.00,SSW,209,1.0,2.0,99,0.00,,,0.00,13.000000,,2013-08-03 13:43:00,
2013-08-03 07:52:00,45.0,45.0,-100.00,SSW,209,1.0,2.0,99,0.00,,,0.00,13.000000,,2013-08-03 13:52:00,
2013-08-03 08:01:00,50.0,49.0,-100.00,NNE,23,1.0,4.0,97,0.00,,,0.00,83.000000,,2013-08-03 14:01:00,
2013-08-03 08:33:00,50.0,49.0,-100.00,NNE,23,1.0,4.0,97,0.00,,,0.00,83.000000,,2013-08-03 14:33:00,
2013-08-03 08:43:00,50.0,49.0,-100.00,NNE,23,1.0,4.0,97,0.00,,,0.00,83.000000,,2013-08-03 14:43:00,
2013-08-03 08:52:00,50.0,49.0,-100.00,NNE,23,1.0,4.0,97,0.00,,,0.00,83.000000,,2013-08-03 14:52:00,
2013-08-03 09:01:00,57.0,52.0,-100.00,NNE,14,2.0,4.0,82,0.00,,,0.00,336.000000,,2013-08-03 15:01:00,
2013-08-03 09:32:00,57.0,52.0,-100.00,NNE,14,2.0,4.0,82,0.00,,,0.00,336.000000,,2013-08-03 15:32:00,
2013-08-03 09:43:00,57.0,52.0,-100.00,NNE,14,2.0,4.0,82,0.00,,,0.00,336.000000,,2013-08-03 15:43:00,
2013-08-03 09:53:00,57.0,52.0,-100.00,NNE,14,2.0,4.0,82,0.00,,,0.00,336.000000,,2013-08-03 15:53:00,
2013-08-03 10:01:00,62.0,53.0,-100.00,ENE,62,3.0,5.0,72,0.00,,,0.00,524.000000,,2013-08-03 16:01:00,
2013-08-03 10:33:00,62.0,53.0,-100.00,ENE,62,3.0,5.0,72,0.00,,,0.00,524.000000,,2013-08-03 16:33:00,
2013-08-03 10:43:00,62.0,53.0,-100.00,ENE,62,3.0,5.0,72,0.00,,,0.00,524.000000,,2013-08-03 16:43:00,
2013-08-03 10:53:00,62.0,53.0,-100.00,ENE,62,3.0,5.0,72,0.00,,,0.00,524.000000,,2013-08-03 16:53:00,
2013-08-03 11:01:00,66.0,53.0,-100.00,NE,56,4.0,6.0,62,0.00,,,0.00,716.000000,,2013-08-03 17:01:00,
2013-08-03 11:32:00,66.0,53.0,-100.00,NE,56,4.0,6.0,62,0.00,,,0.00,716.000000,,2013-08-03 17:32:00,
2013-08-03 11:43:00,66.0,53.0,-100.00,NE,56,4.0,6.0,62,0.00,,,0.00,716.000000,,2013-08-03 17:43:00,
2013-08-03 11:52:00,66.0,53.0,-100.00,NE,56,4.0,6.0,62,0.00,,,0.00,716.000000,,2013-08-03 17:52:00,
2013-08-03 12:01:00,70.0,53.0,-100.00,ENE,63,3.0,7.0,54,0.00,,,0.00,870.000000,,2013-08-03 18:01:00,
2013-08-03 12:32:00,70.0,53.0,-100.00,ENE,63,3.0,7.0,54,0.00,,,0.00,870.000000,,2013-08-03 18:32:00,
2013-08-03 12:43:00,70.0,53.0,-100.00,ENE,63,3.0,7.0,54,0.00,,,0.00,870.000000,,2013-08-03 18:43:00,
2013-08-03 12:53:00,70.0,53.0,-100.00,ENE,63,3.0,7.0,54,0.00,,,0.00,870.000000,,2013-08-03 18:53:00,
2013-08-03 13:01:00,75.0,52.0,-100.00,ENE,73,4.0,7.0,45,0.00,,,0.00,987.000000,,2013-08-03 19:01:00,
2013-08-03 13:32:00,75.0,52.0,-100.00,ENE,73,4.0,7.0,45,0.00,,,0.00,987.000000,,2013-08-03 19:32:00,
2013-08-03 13:43:00,75.0,52.0,-100.00,ENE,73,4.0,7.0,45,0.00,,,0.00,987.000000,,2013-08-03 19:43:00,
2013-08-03 13:53:00,75.0,52.0,-100.00,ENE,73,4.0,7.0,45,0.00,,,0.00,987.000000,,2013-08-03 19:53:00,
2013-08-03 14:01:00,75.0,47.0,-100.00,North,10,3.0,7.0,37,0.00,,,0.00,620.000000,,2013-08-03 20:01:00,
2013-08-03 14:32:00,75.0,47.0,-100.00,North,10,3.0,7.0,37,0.00,,,0.00,620.000000,,2013-08-03 20:32:00,
2013-08-03 14:42:00,75.0,47.0,-100.00,North,10,3.0,7.0,37,0.00,,,0.00,620.000000,,2013-08-03 20:42:00,
2013-08-03 14:52:00,75.0,47.0,-100.00,North,10,3.0,7.0,37,0.00,,,0.00,620.000000,,2013-08-03 20:52:00,
2013-08-03 15:01:00,73.0,44.0,-100.00,North,11,4.0,9.0,35,0.00,,,0.00,562.000000,,2013-08-03 21:01:00,
2013-08-03 15:32:00,73.0,44.0,-100.00,North,11,4.0,9.0,35,0.00,,,0.00,562.000000,,2013-08-03 21:32:00,
2013-08-03 15:42:00,73.0,44.0,-100.00,North,11,4.0,9.0,35,0.00,,,0.00,562.000000,,2013-08-03 21:42:00,
2013-08-03 15:52:00,73.0,44.0,-100.00,North,11,4.0,9.0,35,0.00,,,0.00,562.000000,,2013-08-03 21:52:00,
2013-08-03 16:01:00,76.0,51.0,-100.00,NNE,17,3.0,7.0,41,0.00,,,0.00,456.000000,,2013-08-03 22:01:00,
2013-08-03 16:33:00,76.0,51.0,-100.00,NNE,17,3.0,7.0,41,0.00,,,0.00,456.000000,,2013-08-03 22:33:00,
2013-08-03 16:43:00,76.0,51.0,-100.00,NNE,17,3.0,7.0,41,0.00,,,0.00,456.000000,,2013-08-03 22:43:00,
2013-08-03 16:52:00,76.0,51.0,-100.00,NNE,17,3.0,7.0,41,0.00,,,0.00,456.000000,,2013-08-03 22:52:00,
2013-08-03 17:01:00,74.0,49.0,-100.00,NNE,21,3.0,10.0,41,0.00,,,0.00,273.000000,,2013-08-03 23:01:00,
2013-08-03 17:32:00,74.0,49.0,-100.00,NNE,21,3.0,10.0,41,0.00,,,0.00,273.000000,,2013-08-03 23:32:00,
2013-08-03 17:42:00,74.0,49.0,-100.00,NNE,21,3.0,10.0,41,0.00,,,0.00,273.000000,,2013-08-03 23:42:00,
2013-08-03 17:52:00,74.0,49.0,-100.00,NNE,21,3.0,10.0,41,0.00,,,0.00,273.000000,,2013-08-03 23:52:00,
2013-08-03 18:01:00,74.0,45.0,-100.00,North,11,5.0,10.0,36,0.00,,,0.00,380.000000,,2013-08-04 00:01:00,
2013-08-03 18:32:00,74.0,45.0,-100.00,North,11,5.0,10.0,36,0.00,,,0.00,380.000000,,2013-08-04 00:32:00,
2013-08-03 18:42:00,74.0,45.0,-100.00,North,11,5.0,10.0,36,0.00,,,0.00,380.000000,,2013-08-04 00:42:00,
2013-08-03 18:52:00,74.0,45.0,-100.00,North,11,5.0,10.0,36,0.00,,,0.00,380.000000,,2013-08-04 00:52:00,
2013-08-03 19:01:00,71.0,45.0,-100.00,NNW,340,3.0,9.0,40,0.00,,,0.00,282.000000,,2013-08-04 01:01:00,
2013-08-03 19:32:00,71.0,45.0,-100.00,NNW,340,3.0,9.0,40,0.00,,,0.00,282.000000,,2013-08-04 01:32:00,
2013-08-03 19:42:00,71.0,45.0,-100.00,NNW,340,3.0,9.0,40,0.00,,,0.00,282.000000,,2013-08-04 01:42:00,
2013-08-03 19:53:00,71.0,45.0,-100.00,NNW,340,3.0,9.0,40,0.00,,,0.00,282.000000,,2013-08-04 01:53:00,
2013-08-03 20:01:00,68.0,48.0,-100.00,NNW,346,3.0,7.0,48,0.00,,,0.00,43.000000,,2013-08-04 02:01:00,
2013-08-03 20:22:00,68.0,48.0,-100.00,NNW,346,3.0,7.0,48,0.00,,,0.00,43.000000,,2013-08-04 02:22:00,
2013-08-03 20:32:00,68.0,48.0,-100.00,NNW,346,3.0,7.0,48,0.00,,,0.00,43.000000,,2013-08-04 02:32:00,
2013-08-03 20:42:00,68.0,48.0,-100.00,NNW,346,3.0,7.0,48,0.00,,,0.00,43.000000,,2013-08-04 02:42:00,
2013-08-03 20:52:00,68.0,48.0,-100.00,NNW,346,3.0,7.0,48,0.00,,,0.00,43.000000,,2013-08-04 02:52:00,
2013-08-03 21:01:00,65.0,47.0,-100.00,WSW,249,0.0,4.0,52,0.00,,,0.00,26.000000,,2013-08-04 03:01:00,
2013-08-03 21:22:00,65.0,47.0,-100.00,WSW,249,0.0,4.0,52,0.00,,,0.00,26.000000,,2013-08-04 03:22:00,
2013-08-03 21:32:00,65.0,47.0,-100.00,WSW,249,0.0,4.0,52,0.00,,,0.00,26.000000,,2013-08-04 03:32:00,
2013-08-03 21:42:00,65.0,47.0,-100.00,WSW,249,0.0,4.0,52,0.00,,,0.00,26.000000,,2013-08-04 03:42:00,
2013-08-03 21:52:00,65.0,47.0,-100.00,WSW,249,0.0,4.0,52,0.00,,,0.00,26.000000,,2013-08-04 03:52:00,
2013-08-03 22:01:00,61.0,47.0,-100.00,SW,218,2.0,3.0,59,0.00,,,0.00,1.000000,,2013-08-04 04:01:00,
2013-08-03 22:22:00,61.0,47.0,-100.00,SW,218,2.0,3.0,59,0.00,,,0.00,1.000000,,2013-08-04 04:22:00,
2013-08-03 22:32:00,61.0,47.0,-100.00,SW,218,2.0,3.0,59,0.00,,,0.00,1.000000,,2013-08-04 04:32:00,
2013-08-03 22:42:00,61.0,47.0,-100.00,SW,218,2.0,3.0,59,0.00,,,0.00,1.000000,,2013-08-04 04:42:00,
2013-08-03 22:52:00,61.0,47.0,-100.00,SW,218,2.0,3.0,59,0.00,,,0.00,1.000000,,2013-08-04 04:52:00,
2013-08-03 23:01:00,57.0,48.0,-100.00,SSW,211,2.0,4.0,72,0.00,,,0.00,0.000000,,2013-08-04 05:01:00,
2013-08-03 23:22:00,57.0,48.0,-100.00,SSW,211,2.0,4.0,72,0.00,,,0.00,0.000000,,2013-08-04 05:22:00,
2013-08-03 23:32:00,57.0,48.0,-100.00,SSW,211,2.0,4.0,72,0.00,,,0.00,0.000000,,2013-08-04 05:32:00,
2013-08-03 23:42:00,57.0,48.0,-100.00,SSW,211,2.0,4.0,72,0.00,,,0.00,0.000000,,2013-08-04 05:42:00,
2013-08-03 23:52:00,57.0,48.0,-100.00,SSW,211,2.0,4.0,72,0.00,,,0.00,0.000000,,2013-08-04 05:52:00,